sensor_id;sensor_type;location;lat;lon;timestamp;temperature;humidity
60309;DHT22;50313;52.894;6.492;2023-07-13T04:45:46;15.10;99.90
60309;DHT22;50313;52.894;6.492;2023-07-13T04:48:48;15.20;99.90
60309;DHT22;50313;52.894;6.492;2023-07-13T04:58:43;15.20;99.90
60309;DHT22;50313;52.894;6.492;2023-07-13T05:14:57;15.30;99.90
60309;DHT22;50313;52.894;6.492;2023-07-13T05:18:12;15.20;99.90
60309;DHT22;50313;52.894;6.492;2023-07-13T05:24:00;15.40;99.90
60309;DHT22;50313;52.894;6.492;2023-07-13T05:26:42;15.50;99.90
60309;DHT22;50313;52.894;6.492;2023-07-13T05:38:32;15.70;99.90
60309;DHT22;50313;52.894;6.492;2023-07-13T05:41:28;15.70;99.90
60309;DHT22;50313;52.894;6.492;2023-07-13T05:44:32;15.80;99.90
60309;DHT22;50313;52.894;6.492;2023-07-13T05:47:36;15.80;99.90
60309;DHT22;50313;52.894;6.492;2023-07-13T05:56:53;16.10;99.90
60309;DHT22;50313;52.894;6.492;2023-07-13T06:00:13;16.20;99.90
60309;DHT22;50313;52.894;6.492;2023-07-13T06:02:50;16.20;99.90
60309;DHT22;50313;52.894;6.492;2023-07-13T06:05:53;16.30;99.90
60309;DHT22;50313;52.894;6.492;2023-07-13T06:18:19;16.70;99.90
60309;DHT22;50313;52.894;6.492;2023-07-13T06:21:08;16.80;99.90
60309;DHT22;50313;52.894;6.492;2023-07-13T06:23:55;16.90;99.90
60309;DHT22;50313;52.894;6.492;2023-07-13T06:30:28;17.10;99.90
60309;DHT22;50313;52.894;6.492;2023-07-13T06:36:59;17.30;99.90
60309;DHT22;50313;52.894;6.492;2023-07-13T06:39:40;17.50;99.90
60309;DHT22;50313;52.894;6.492;2023-07-13T06:52:51;18.20;99.90
60309;DHT22;50313;52.894;6.492;2023-07-13T06:55:40;18.40;99.90
60309;DHT22;50313;52.894;6.492;2023-07-13T07:02:16;18.60;99.90
60309;DHT22;50313;52.894;6.492;2023-07-13T07:08:08;18.70;99.90
60309;DHT22;50313;52.894;6.492;2023-07-13T07:23:58;18.90;99.90
60309;DHT22;50313;52.894;6.492;2023-07-13T07:29:51;19.10;99.90
60309;DHT22;50313;52.894;6.492;2023-07-13T07:32:44;18.90;99.90
60309;DHT22;50313;52.894;6.492;2023-07-13T07:35:29;18.70;99.90
60309;DHT22;50313;52.894;6.492;2023-07-13T07:38:18;18.50;99.90
60309;DHT22;50313;52.894;6.492;2023-07-13T07:40:49;18.50;99.90
60309;DHT22;50313;52.894;6.492;2023-07-13T07:43:15;18.40;99.90
60309;DHT22;50313;52.894;6.492;2023-07-13T07:45:41;18.30;99.90
60309;DHT22;50313;52.894;6.492;2023-07-13T07:48:27;18.40;99.90
60309;DHT22;50313;52.894;6.492;2023-07-13T07:50:59;18.60;99.90
60309;DHT22;50313;52.894;6.492;2023-07-13T07:53:32;18.70;99.90
60309;DHT22;50313;52.894;6.492;2023-07-13T07:56:03;18.70;99.90
60309;DHT22;50313;52.894;6.492;2023-07-13T07:58:31;19.00;99.90
60309;DHT22;50313;52.894;6.492;2023-07-13T08:01:24;19.00;99.90
60309;DHT22;50313;52.894;6.492;2023-07-13T08:03:49;19.30;99.90
60309;DHT22;50313;52.894;6.492;2023-07-13T08:06:16;19.40;99.90
60309;DHT22;50313;52.894;6.492;2023-07-13T08:08:45;19.20;99.90
60309;DHT22;50313;52.894;6.492;2023-07-13T08:11:15;18.90;99.90
60309;DHT22;50313;52.894;6.492;2023-07-13T08:13:41;18.90;99.90
60309;DHT22;50313;52.894;6.492;2023-07-13T08:16:10;18.90;99.90
60309;DHT22;50313;52.894;6.492;2023-07-13T08:18:37;18.70;99.90
60309;DHT22;50313;52.894;6.492;2023-07-13T08:21:06;18.60;99.90
60309;DHT22;50313;52.894;6.492;2023-07-13T08:23:33;18.40;99.90
60309;DHT22;50313;52.894;6.492;2023-07-13T08:26:06;18.20;99.90
60309;DHT22;50313;52.894;6.492;2023-07-13T08:28:52;17.80;99.90
60309;DHT22;50313;52.894;6.492;2023-07-13T08:31:20;17.50;99.90
60309;DHT22;50313;52.894;6.492;2023-07-13T08:33:48;17.30;99.90
60309;DHT22;50313;52.894;6.492;2023-07-13T08:36:19;17.10;99.90
60309;DHT22;50313;52.894;6.492;2023-07-13T08:38:50;16.90;99.90
60309;DHT22;50313;52.894;6.492;2023-07-13T08:41:22;16.50;99.90
60309;DHT22;50313;52.894;6.492;2023-07-13T08:43:59;16.60;99.90
60309;DHT22;50313;52.894;6.492;2023-07-13T08:46:36;16.70;99.90
60309;DHT22;50313;52.894;6.492;2023-07-13T08:49:21;16.70;99.90
60309;DHT22;50313;52.894;6.492;2023-07-13T08:51:58;16.80;99.90
60309;DHT22;50313;52.894;6.492;2023-07-13T08:54:38;16.90;99.90
60309;DHT22;50313;52.894;6.492;2023-07-13T08:57:20;16.90;99.90
60309;DHT22;50313;52.894;6.492;2023-07-13T08:59:47;16.80;99.90
60309;DHT22;50313;52.894;6.492;2023-07-13T09:02:35;16.80;99.90
60309;DHT22;50313;52.894;6.492;2023-07-13T09:08:23;16.80;99.90
60309;DHT22;50313;52.894;6.492;2023-07-13T09:11:23;16.90;99.90
60309;DHT22;50313;52.894;6.492;2023-07-13T09:14:05;16.90;99.90
60309;DHT22;50313;52.894;6.492;2023-07-13T09:16:37;16.90;99.90
60309;DHT22;50313;52.894;6.492;2023-07-13T09:19:28;16.90;99.90
60309;DHT22;50313;52.894;6.492;2023-07-13T09:22:03;16.90;99.90
60309;DHT22;50313;52.894;6.492;2023-07-13T09:26:59;16.80;99.90
60309;DHT22;50313;52.894;6.492;2023-07-13T09:29:34;16.50;99.90
60309;DHT22;50313;52.894;6.492;2023-07-13T09:32:07;16.40;99.90
60309;DHT22;50313;52.894;6.492;2023-07-13T09:34:35;16.20;99.90
60309;DHT22;50313;52.894;6.492;2023-07-13T09:37:03;16.10;99.90
60309;DHT22;50313;52.894;6.492;2023-07-13T09:39:36;16.10;99.90
60309;DHT22;50313;52.894;6.492;2023-07-13T09:42:16;16.50;99.90
60309;DHT22;50313;52.894;6.492;2023-07-13T09:44:57;16.60;99.90
60309;DHT22;50313;52.894;6.492;2023-07-13T09:47:32;17.00;99.90
60309;DHT22;50313;52.894;6.492;2023-07-13T09:50:03;17.30;99.90
60309;DHT22;50313;52.894;6.492;2023-07-13T09:52:41;17.70;99.90
60309;DHT22;50313;52.894;6.492;2023-07-13T09:57:49;18.30;99.90
60309;DHT22;50313;52.894;6.492;2023-07-13T10:00:28;18.40;99.90
60309;DHT22;50313;52.894;6.492;2023-07-13T10:05:40;19.00;99.90
60309;DHT22;50313;52.894;6.492;2023-07-13T10:08:27;19.10;99.90
60309;DHT22;50313;52.894;6.492;2023-07-13T10:11:16;19.40;99.90
60309;DHT22;50313;52.894;6.492;2023-07-13T10:13:49;19.50;99.90
60309;DHT22;50313;52.894;6.492;2023-07-13T10:16:18;19.70;99.90
60309;DHT22;50313;52.894;6.492;2023-07-13T10:18:57;20.10;99.90
60309;DHT22;50313;52.894;6.492;2023-07-13T10:24:30;20.40;99.90
60309;DHT22;50313;52.894;6.492;2023-07-13T10:27:16;20.60;99.90
60309;DHT22;50313;52.894;6.492;2023-07-13T10:32:38;20.90;99.90
60309;DHT22;50313;52.894;6.492;2023-07-13T10:35:04;21.00;99.90
60309;DHT22;50313;52.894;6.492;2023-07-13T10:37:42;21.10;99.90
60309;DHT22;50313;52.894;6.492;2023-07-13T10:40:18;21.30;99.90
60309;DHT22;50313;52.894;6.492;2023-07-13T10:42:47;21.60;99.90
60309;DHT22;50313;52.894;6.492;2023-07-13T10:45:23;21.60;99.90
60309;DHT22;50313;52.894;6.492;2023-07-13T10:47:51;21.90;99.90
60309;DHT22;50313;52.894;6.492;2023-07-13T10:50:29;22.10;99.90
60309;DHT22;50313;52.894;6.492;2023-07-13T10:53:15;21.70;99.90
60309;DHT22;50313;52.894;6.492;2023-07-13T10:58:23;21.90;99.90
60309;DHT22;50313;52.894;6.492;2023-07-13T11:01:15;21.80;99.90
60309;DHT22;50313;52.894;6.492;2023-07-13T11:04:00;21.70;99.90
60309;DHT22;50313;52.894;6.492;2023-07-13T11:11:43;21.70;99.90
60309;DHT22;50313;52.894;6.492;2023-07-13T11:14:34;21.60;99.90
60309;DHT22;50313;52.894;6.492;2023-07-13T11:25:46;21.60;97.30
60309;DHT22;50313;52.894;6.492;2023-07-13T11:30:49;22.20;97.00
60309;DHT22;50313;52.894;6.492;2023-07-13T11:33:23;22.60;96.10
60309;DHT22;50313;52.894;6.492;2023-07-13T11:36:00;22.80;95.20
60309;DHT22;50313;52.894;6.492;2023-07-13T11:38:43;22.80;93.90
60309;DHT22;50313;52.894;6.492;2023-07-13T11:41:25;23.10;95.20
60309;DHT22;50313;52.894;6.492;2023-07-13T11:44:07;23.00;98.00
60309;DHT22;50313;52.894;6.492;2023-07-13T11:46:33;23.00;99.30
60309;DHT22;50313;52.894;6.492;2023-07-13T11:49:04;22.50;97.90
60309;DHT22;50313;52.894;6.492;2023-07-13T11:51:35;23.00;91.40
60309;DHT22;50313;52.894;6.492;2023-07-13T11:54:06;23.00;89.70
60309;DHT22;50313;52.894;6.492;2023-07-13T11:56:41;23.10;91.30
60309;DHT22;50313;52.894;6.492;2023-07-13T11:59:18;23.20;90.10
60309;DHT22;50313;52.894;6.492;2023-07-13T12:01:49;23.10;85.20
60309;DHT22;50313;52.894;6.492;2023-07-13T12:04:32;23.10;85.20
60309;DHT22;50313;52.894;6.492;2023-07-13T12:07:07;23.20;83.60
60309;DHT22;50313;52.894;6.492;2023-07-13T12:09:37;23.50;83.40
60309;DHT22;50313;52.894;6.492;2023-07-13T12:12:19;23.40;81.50
60309;DHT22;50313;52.894;6.492;2023-07-13T12:14:45;23.20;82.00
60309;DHT22;50313;52.894;6.492;2023-07-13T12:17:24;22.90;84.30
60309;DHT22;50313;52.894;6.492;2023-07-13T12:19:51;22.50;84.30
60309;DHT22;50313;52.894;6.492;2023-07-13T12:22:19;22.10;83.80
60309;DHT22;50313;52.894;6.492;2023-07-13T12:24:50;21.50;86.70
60309;DHT22;50313;52.894;6.492;2023-07-13T12:27:42;22.10;89.10
60309;DHT22;50313;52.894;6.492;2023-07-13T12:30:31;22.10;88.80
60309;DHT22;50313;52.894;6.492;2023-07-13T12:33:12;21.80;87.70
60309;DHT22;50313;52.894;6.492;2023-07-13T12:35:48;22.20;86.10
60309;DHT22;50313;52.894;6.492;2023-07-13T12:38:38;22.00;82.90
60309;DHT22;50313;52.894;6.492;2023-07-13T12:41:22;21.70;83.00
60309;DHT22;50313;52.894;6.492;2023-07-13T12:43:50;21.50;84.10
60309;DHT22;50313;52.894;6.492;2023-07-13T12:46:47;21.50;85.70
60309;DHT22;50313;52.894;6.492;2023-07-13T12:49:40;21.90;86.10
60309;DHT22;50313;52.894;6.492;2023-07-13T12:52:32;22.10;85.00
60309;DHT22;50313;52.894;6.492;2023-07-13T12:55:16;21.70;86.00
60309;DHT22;50313;52.894;6.492;2023-07-13T12:58:06;21.40;84.40
60309;DHT22;50313;52.894;6.492;2023-07-13T13:01:01;21.80;86.70
60309;DHT22;50313;52.894;6.492;2023-07-13T13:03:40;22.20;86.20
60309;DHT22;50313;52.894;6.492;2023-07-13T13:09:31;21.70;85.30
60309;DHT22;50313;52.894;6.492;2023-07-13T13:15:54;21.50;85.80
60309;DHT22;50313;52.894;6.492;2023-07-13T13:18:56;22.10;85.20
60309;DHT22;50313;52.894;6.492;2023-07-13T13:21:37;22.00;84.10
60309;DHT22;50313;52.894;6.492;2023-07-13T13:24:27;22.40;83.20
60309;DHT22;50313;52.894;6.492;2023-07-13T13:27:27;23.00;84.10
60309;DHT22;50313;52.894;6.492;2023-07-13T13:30:28;23.40;83.70
60309;DHT22;50313;52.894;6.492;2023-07-13T13:33:00;23.10;80.10
60309;DHT22;50313;52.894;6.492;2023-07-13T13:35:39;22.60;81.50
60309;DHT22;50313;52.894;6.492;2023-07-13T13:38:23;23.00;83.20
60309;DHT22;50313;52.894;6.492;2023-07-13T13:40:56;22.80;80.10
60309;DHT22;50313;52.894;6.492;2023-07-13T13:44:04;22.70;80.00
60309;DHT22;50313;52.894;6.492;2023-07-13T13:46:40;22.60;83.10
60309;DHT22;50313;52.894;6.492;2023-07-13T13:49:26;22.80;80.40
60309;DHT22;50313;52.894;6.492;2023-07-13T13:52:05;23.10;80.90
60309;DHT22;50313;52.894;6.492;2023-07-13T13:54:36;23.30;82.50
60309;DHT22;50313;52.894;6.492;2023-07-13T13:57:28;23.10;77.00
60309;DHT22;50313;52.894;6.492;2023-07-13T14:00:27;24.00;78.90
60309;DHT22;50313;52.894;6.492;2023-07-13T14:06:26;24.30;76.00
60309;DHT22;50313;52.894;6.492;2023-07-13T14:09:00;24.30;77.70
60309;DHT22;50313;52.894;6.492;2023-07-13T14:17:49;24.00;78.40
60309;DHT22;50313;52.894;6.492;2023-07-13T14:21:00;24.50;78.70
60309;DHT22;50313;52.894;6.492;2023-07-13T14:24:04;24.90;75.00
60309;DHT22;50313;52.894;6.492;2023-07-13T14:26:47;24.00;77.30
60309;DHT22;50313;52.894;6.492;2023-07-13T14:29:42;23.70;76.90
60309;DHT22;50313;52.894;6.492;2023-07-13T14:32:25;24.20;76.70
60309;DHT22;50313;52.894;6.492;2023-07-13T14:34:59;24.40;77.00
60309;DHT22;50313;52.894;6.492;2023-07-13T14:38:04;24.80;74.40
60309;DHT22;50313;52.894;6.492;2023-07-13T14:40:33;23.80;74.20
60309;DHT22;50313;52.894;6.492;2023-07-13T14:43:13;23.40;75.90
60309;DHT22;50313;52.894;6.492;2023-07-13T14:46:29;24.50;78.10
60309;DHT22;50313;52.894;6.492;2023-07-13T14:49:04;24.70;76.40
60309;DHT22;50313;52.894;6.492;2023-07-13T14:51:55;24.70;75.50
60309;DHT22;50313;52.894;6.492;2023-07-13T14:54:28;24.40;76.90
60309;DHT22;50313;52.894;6.492;2023-07-13T14:57:19;24.10;77.90
60309;DHT22;50313;52.894;6.492;2023-07-13T15:00:20;24.50;79.10
60309;DHT22;50313;52.894;6.492;2023-07-13T15:06:54;24.00;79.00
60309;DHT22;50313;52.894;6.492;2023-07-13T15:13:51;24.80;78.40
60309;DHT22;50313;52.894;6.492;2023-07-13T15:16:39;24.20;78.20
60309;DHT22;50313;52.894;6.492;2023-07-13T15:51:20;23.10;78.60
60309;DHT22;50313;52.894;6.492;2023-07-13T15:54:03;22.60;82.30
60309;DHT22;50313;52.894;6.492;2023-07-13T16:01:05;22.50;83.50
60309;DHT22;50313;52.894;6.492;2023-07-13T16:04:08;22.40;82.90
60309;DHT22;50313;52.894;6.492;2023-07-13T16:14:17;22.80;85.60
60309;DHT22;50313;52.894;6.492;2023-07-13T16:17:11;24.50;81.70
60309;DHT22;50313;52.894;6.492;2023-07-13T16:20:03;25.30;78.50
60309;DHT22;50313;52.894;6.492;2023-07-13T16:23:15;24.30;78.10
60309;DHT22;50313;52.894;6.492;2023-07-13T16:26:34;23.70;79.90
60309;DHT22;50313;52.894;6.492;2023-07-13T16:40:52;25.80;75.80
60309;DHT22;50313;52.894;6.492;2023-07-13T16:48:29;26.60;68.70
60309;DHT22;50313;52.894;6.492;2023-07-13T16:54:54;26.70;69.70
60309;DHT22;50313;52.894;6.492;2023-07-13T16:57:57;26.80;68.70
60309;DHT22;50313;52.894;6.492;2023-07-13T17:07:21;25.80;72.40
60309;DHT22;50313;52.894;6.492;2023-07-13T17:13:55;26.60;69.50
60309;DHT22;50313;52.894;6.492;2023-07-13T17:20:52;26.70;68.20
60309;DHT22;50313;52.894;6.492;2023-07-13T17:27:19;27.50;67.00
60309;DHT22;50313;52.894;6.492;2023-07-13T17:31:18;27.30;66.50
60309;DHT22;50313;52.894;6.492;2023-07-13T17:36:55;24.70;68.10
60309;DHT22;50313;52.894;6.492;2023-07-13T17:40:07;24.30;69.80
60309;DHT22;50313;52.894;6.492;2023-07-13T17:42:38;23.80;72.60
60309;DHT22;50313;52.894;6.492;2023-07-13T17:45:09;23.30;74.50
60309;DHT22;50313;52.894;6.492;2023-07-13T17:47:55;22.80;75.60
60309;DHT22;50313;52.894;6.492;2023-07-13T17:53:41;22.10;79.40
60309;DHT22;50313;52.894;6.492;2023-07-13T18:00:09;21.70;81.70
60309;DHT22;50313;52.894;6.492;2023-07-13T18:10:07;21.60;83.40
60309;DHT22;50313;52.894;6.492;2023-07-13T18:16:28;21.30;84.60
60309;DHT22;50313;52.894;6.492;2023-07-13T18:19:35;21.30;87.10
60309;DHT22;50313;52.894;6.492;2023-07-13T18:22:27;21.20;87.10
60309;DHT22;50313;52.894;6.492;2023-07-13T18:25:05;21.10;86.70
60309;DHT22;50313;52.894;6.492;2023-07-13T18:27:55;21.00;87.70
60309;DHT22;50313;52.894;6.492;2023-07-13T18:41:12;20.80;89.00
60309;DHT22;50313;52.894;6.492;2023-07-13T18:44:43;20.80;90.10
60309;DHT22;50313;52.894;6.492;2023-07-13T18:47:52;20.70;90.10
60309;DHT22;50313;52.894;6.492;2023-07-13T18:54:24;20.50;90.70
60309;DHT22;50313;52.894;6.492;2023-07-13T19:00:51;20.20;91.20
60309;DHT22;50313;52.894;6.492;2023-07-13T19:04:20;20.10;91.80
60309;DHT22;50313;52.894;6.492;2023-07-13T19:22:02;19.40;93.80
60309;DHT22;50313;52.894;6.492;2023-07-13T19:31:56;18.90;96.00
60309;DHT22;50313;52.894;6.492;2023-07-13T19:56:34;18.20;99.90
60309;DHT22;50313;52.894;6.492;2023-07-13T19:59:53;18.20;99.90
60309;DHT22;50313;52.894;6.492;2023-07-13T20:03:17;18.10;99.90
60309;DHT22;50313;52.894;6.492;2023-07-13T20:14:37;17.70;99.90
60309;DHT22;50313;52.894;6.492;2023-07-13T20:21:43;17.50;99.90
60309;DHT22;50313;52.894;6.492;2023-07-13T21:01:02;16.50;99.90
60309;DHT22;50313;52.894;6.492;2023-07-13T21:32:32;15.60;99.90
60309;DHT22;50313;52.894;6.492;2023-07-13T21:36:01;15.70;99.90
60309;DHT22;50313;52.894;6.492;2023-07-13T21:55:50;15.50;99.90
60309;DHT22;50313;52.894;6.492;2023-07-13T22:09:17;15.40;99.90
60309;DHT22;50313;52.894;6.492;2023-07-13T22:29:38;15.10;99.90
60309;DHT22;50313;52.894;6.492;2023-07-13T22:33:06;15.10;99.90
60309;DHT22;50313;52.894;6.492;2023-07-13T22:36:03;15.10;99.90
60309;DHT22;50313;52.894;6.492;2023-07-13T22:42:32;15.10;99.90
60309;DHT22;50313;52.894;6.492;2023-07-13T22:51:48;15.20;99.90
60309;DHT22;50313;52.894;6.492;2023-07-13T23:02:00;15.30;99.90
60309;DHT22;50313;52.894;6.492;2023-07-13T23:04:59;15.30;99.90
60309;DHT22;50313;52.894;6.492;2023-07-13T23:12:02;15.40;99.90
60309;DHT22;50313;52.894;6.492;2023-07-13T23:18:30;15.50;99.90
60309;DHT22;50313;52.894;6.492;2023-07-13T23:29:17;15.10;99.90
60309;DHT22;50313;52.894;6.492;2023-07-13T23:46:48;14.70;99.90
